sensor_id;sensor_type;location;lat;lon;timestamp;P1;durP1;ratioP1;P2;durP2;ratioP2
2338;SDS011;1180;51.438;6.978;2023-03-15T00:00:10;8.20;;;2.77;;
2338;SDS011;1180;51.438;6.978;2023-03-15T00:02:36;13.23;;;2.50;;
2338;SDS011;1180;51.438;6.978;2023-03-15T00:05:02;9.20;;;2.40;;
2338;SDS011;1180;51.438;6.978;2023-03-15T00:07:28;6.90;;;2.40;;
2338;SDS011;1180;51.438;6.978;2023-03-15T00:09:53;9.47;;;2.50;;
2338;SDS011;1180;51.438;6.978;2023-03-15T00:12:19;4.57;;;2.43;;
2338;SDS011;1180;51.438;6.978;2023-03-15T00:14:48;4.27;;;2.10;;
2338;SDS011;1180;51.438;6.978;2023-03-15T00:17:14;12.17;;;3.33;;
2338;SDS011;1180;51.438;6.978;2023-03-15T00:19:39;18.77;;;3.23;;
2338;SDS011;1180;51.438;6.978;2023-03-15T00:22:05;10.67;;;2.70;;
2338;SDS011;1180;51.438;6.978;2023-03-15T00:24:31;6.27;;;3.07;;
2338;SDS011;1180;51.438;6.978;2023-03-15T00:26:56;5.33;;;3.43;;
2338;SDS011;1180;51.438;6.978;2023-03-15T00:29:22;8.90;;;2.87;;
2338;SDS011;1180;51.438;6.978;2023-03-15T00:31:47;8.43;;;3.17;;
2338;SDS011;1180;51.438;6.978;2023-03-15T00:34:14;11.77;;;3.57;;
2338;SDS011;1180;51.438;6.978;2023-03-15T00:36:39;5.97;;;3.27;;
2338;SDS011;1180;51.438;6.978;2023-03-15T00:39:07;7.05;;;4.05;;
2338;SDS011;1180;51.438;6.978;2023-03-15T00:41:33;7.83;;;3.80;;
2338;SDS011;1180;51.438;6.978;2023-03-15T00:43:59;7.50;;;3.50;;
2338;SDS011;1180;51.438;6.978;2023-03-15T00:46:24;6.40;;;2.70;;
2338;SDS011;1180;51.438;6.978;2023-03-15T00:48:50;6.33;;;2.50;;
2338;SDS011;1180;51.438;6.978;2023-03-15T00:51:16;11.43;;;3.07;;
2338;SDS011;1180;51.438;6.978;2023-03-15T00:53:46;5.78;;;3.60;;
2338;SDS011;1180;51.438;6.978;2023-03-15T00:56:14;4.57;;;3.53;;
2338;SDS011;1180;51.438;6.978;2023-03-15T00:58:44;5.28;;;4.20;;
2338;SDS011;1180;51.438;6.978;2023-03-15T01:01:12;8.65;;;5.38;;
2338;SDS011;1180;51.438;6.978;2023-03-15T01:03:40;5.13;;;4.18;;
2338;SDS011;1180;51.438;6.978;2023-03-15T01:06:12;5.97;;;4.53;;
2338;SDS011;1180;51.438;6.978;2023-03-15T01:08:39;5.80;;;4.40;;
2338;SDS011;1180;51.438;6.978;2023-03-15T01:11:06;7.57;;;4.40;;
2338;SDS011;1180;51.438;6.978;2023-03-15T01:13:34;6.43;;;4.97;;
2338;SDS011;1180;51.438;6.978;2023-03-15T01:16:00;8.65;;;4.20;;
2338;SDS011;1180;51.438;6.978;2023-03-15T01:18:26;5.27;;;4.77;;
2338;SDS011;1180;51.438;6.978;2023-03-15T01:20:51;4.83;;;3.20;;
2338;SDS011;1180;51.438;6.978;2023-03-15T01:23:17;4.37;;;3.00;;
2338;SDS011;1180;51.438;6.978;2023-03-15T01:25:42;5.07;;;3.00;;
2338;SDS011;1180;51.438;6.978;2023-03-15T01:28:07;5.20;;;2.77;;
2338;SDS011;1180;51.438;6.978;2023-03-15T01:30:33;4.60;;;3.00;;
2338;SDS011;1180;51.438;6.978;2023-03-15T01:32:58;3.30;;;3.00;;
2338;SDS011;1180;51.438;6.978;2023-03-15T01:35:23;3.47;;;3.17;;
2338;SDS011;1180;51.438;6.978;2023-03-15T01:37:49;3.80;;;3.27;;
2338;SDS011;1180;51.438;6.978;2023-03-15T01:40:15;3.75;;;2.92;;
2338;SDS011;1180;51.438;6.978;2023-03-15T01:48:18;3.40;;;2.90;;
2338;SDS011;1180;51.438;6.978;2023-03-15T01:50:46;5.13;;;3.60;;
2338;SDS011;1180;51.438;6.978;2023-03-15T01:53:12;4.30;;;2.47;;
2338;SDS011;1180;51.438;6.978;2023-03-15T01:55:38;3.20;;;2.90;;
2338;SDS011;1180;51.438;6.978;2023-03-15T01:58:04;6.90;;;3.05;;
2338;SDS011;1180;51.438;6.978;2023-03-15T02:00:30;3.07;;;2.73;;
2338;SDS011;1180;51.438;6.978;2023-03-15T02:02:57;7.67;;;2.67;;
2338;SDS011;1180;51.438;6.978;2023-03-15T02:05:32;2.70;;;2.40;;
2338;SDS011;1180;51.438;6.978;2023-03-15T02:08:09;2.90;;;2.38;;
2338;SDS011;1180;51.438;6.978;2023-03-15T02:10:36;6.45;;;2.30;;
2338;SDS011;1180;51.438;6.978;2023-03-15T02:13:08;3.05;;;2.20;;
2338;SDS011;1180;51.438;6.978;2023-03-15T02:15:36;5.20;;;3.15;;
2338;SDS011;1180;51.438;6.978;2023-03-15T02:18:01;3.50;;;2.00;;
2338;SDS011;1180;51.438;6.978;2023-03-15T02:20:32;2.60;;;1.90;;
2338;SDS011;1180;51.438;6.978;2023-03-15T02:23:06;3.55;;;2.35;;
2338;SDS011;1180;51.438;6.978;2023-03-15T02:28:10;3.03;;;1.80;;
2338;SDS011;1180;51.438;6.978;2023-03-15T02:30:37;4.60;;;1.83;;
2338;SDS011;1180;51.438;6.978;2023-03-15T02:33:04;2.10;;;1.80;;
2338;SDS011;1180;51.438;6.978;2023-03-15T02:35:35;2.17;;;1.40;;
2338;SDS011;1180;51.438;6.978;2023-03-15T02:38:00;2.07;;;1.90;;
2338;SDS011;1180;51.438;6.978;2023-03-15T02:40:28;3.35;;;2.45;;
2338;SDS011;1180;51.438;6.978;2023-03-15T02:43:04;3.17;;;2.10;;
2338;SDS011;1180;51.438;6.978;2023-03-15T02:45:32;3.35;;;3.05;;
2338;SDS011;1180;51.438;6.978;2023-03-15T02:48:00;8.32;;;4.43;;
2338;SDS011;1180;51.438;6.978;2023-03-15T02:50:29;8.85;;;4.80;;
2338;SDS011;1180;51.438;6.978;2023-03-15T02:52:55;7.80;;;5.85;;
2338;SDS011;1180;51.438;6.978;2023-03-15T02:55:20;5.50;;;4.90;;
2338;SDS011;1180;51.438;6.978;2023-03-15T02:57:46;6.50;;;4.93;;
2338;SDS011;1180;51.438;6.978;2023-03-15T03:00:12;6.88;;;5.88;;
2338;SDS011;1180;51.438;6.978;2023-03-15T03:02:39;6.93;;;4.85;;
2338;SDS011;1180;51.438;6.978;2023-03-15T03:05:05;9.48;;;5.60;;
2338;SDS011;1180;51.438;6.978;2023-03-15T03:07:31;10.50;;;6.10;;
2338;SDS011;1180;51.438;6.978;2023-03-15T03:09:56;8.10;;;5.43;;
2338;SDS011;1180;51.438;6.978;2023-03-15T03:12:22;7.67;;;6.53;;
2338;SDS011;1180;51.438;6.978;2023-03-15T03:14:47;8.40;;;6.37;;
2338;SDS011;1180;51.438;6.978;2023-03-15T03:17:13;9.87;;;5.60;;
2338;SDS011;1180;51.438;6.978;2023-03-15T03:19:38;6.80;;;4.60;;
2338;SDS011;1180;51.438;6.978;2023-03-15T03:22:04;3.73;;;2.93;;
2338;SDS011;1180;51.438;6.978;2023-03-15T03:24:29;4.80;;;3.00;;
2338;SDS011;1180;51.438;6.978;2023-03-15T03:26:55;4.77;;;2.20;;
2338;SDS011;1180;51.438;6.978;2023-03-15T03:29:22;4.45;;;2.42;;
2338;SDS011;1180;51.438;6.978;2023-03-15T03:31:48;2.50;;;2.30;;
2338;SDS011;1180;51.438;6.978;2023-03-15T03:34:14;4.97;;;3.37;;
2338;SDS011;1180;51.438;6.978;2023-03-15T03:36:39;4.03;;;3.07;;
2338;SDS011;1180;51.438;6.978;2023-03-15T03:39:05;4.05;;;3.75;;
2338;SDS011;1180;51.438;6.978;2023-03-15T03:41:31;6.20;;;4.47;;
2338;SDS011;1180;51.438;6.978;2023-03-15T03:43:56;3.47;;;3.20;;
2338;SDS011;1180;51.438;6.978;2023-03-15T03:46:21;4.73;;;3.57;;
2338;SDS011;1180;51.438;6.978;2023-03-15T03:48:47;6.70;;;4.37;;
2338;SDS011;1180;51.438;6.978;2023-03-15T03:51:12;3.70;;;3.30;;
2338;SDS011;1180;51.438;6.978;2023-03-15T03:53:37;3.40;;;3.10;;
2338;SDS011;1180;51.438;6.978;2023-03-15T03:56:06;3.17;;;2.87;;
2338;SDS011;1180;51.438;6.978;2023-03-15T03:58:32;3.30;;;3.00;;
2338;SDS011;1180;51.438;6.978;2023-03-15T04:00:57;2.77;;;2.57;;
2338;SDS011;1180;51.438;6.978;2023-03-15T04:03:23;3.20;;;2.60;;
2338;SDS011;1180;51.438;6.978;2023-03-15T04:05:51;2.55;;;2.00;;
2338;SDS011;1180;51.438;6.978;2023-03-15T04:08:17;2.80;;;2.60;;
2338;SDS011;1180;51.438;6.978;2023-03-15T04:10:43;3.50;;;2.40;;
2338;SDS011;1180;51.438;6.978;2023-03-15T04:13:08;3.93;;;2.30;;
2338;SDS011;1180;51.438;6.978;2023-03-15T04:15:33;2.90;;;2.30;;
2338;SDS011;1180;51.438;6.978;2023-03-15T04:17:59;3.17;;;2.70;;
2338;SDS011;1180;51.438;6.978;2023-03-15T04:20:29;3.05;;;2.65;;
2338;SDS011;1180;51.438;6.978;2023-03-15T04:22:58;8.25;;;3.90;;
2338;SDS011;1180;51.438;6.978;2023-03-15T04:25:24;5.53;;;4.53;;
2338;SDS011;1180;51.438;6.978;2023-03-15T04:27:50;4.43;;;3.97;;
2338;SDS011;1180;51.438;6.978;2023-03-15T04:30:23;6.15;;;4.95;;
2338;SDS011;1180;51.438;6.978;2023-03-15T04:32:51;5.07;;;4.57;;
2338;SDS011;1180;51.438;6.978;2023-03-15T04:35:23;6.55;;;4.97;;
2338;SDS011;1180;51.438;6.978;2023-03-15T04:37:50;6.03;;;5.38;;
2338;SDS011;1180;51.438;6.978;2023-03-15T04:40:16;5.10;;;4.60;;
2338;SDS011;1180;51.438;6.978;2023-03-15T04:42:41;6.40;;;5.80;;
2338;SDS011;1180;51.438;6.978;2023-03-15T04:45:07;6.40;;;5.23;;
2338;SDS011;1180;51.438;6.978;2023-03-15T04:47:32;9.27;;;6.70;;
2338;SDS011;1180;51.438;6.978;2023-03-15T04:49:58;8.13;;;5.80;;
2338;SDS011;1180;51.438;6.978;2023-03-15T04:52:24;7.07;;;6.20;;
2338;SDS011;1180;51.438;6.978;2023-03-15T04:54:49;7.20;;;5.97;;
2338;SDS011;1180;51.438;6.978;2023-03-15T04:57:14;5.23;;;4.73;;
2338;SDS011;1180;51.438;6.978;2023-03-15T04:59:40;5.83;;;5.27;;
2338;SDS011;1180;51.438;6.978;2023-03-15T05:02:05;4.83;;;4.43;;
2338;SDS011;1180;51.438;6.978;2023-03-15T05:04:31;5.60;;;5.10;;
2338;SDS011;1180;51.438;6.978;2023-03-15T05:06:56;5.87;;;5.00;;
2338;SDS011;1180;51.438;6.978;2023-03-15T05:09:21;7.37;;;5.50;;
2338;SDS011;1180;51.438;6.978;2023-03-15T05:11:47;6.83;;;5.70;;
2338;SDS011;1180;51.438;6.978;2023-03-15T05:14:13;8.47;;;5.60;;
2338;SDS011;1180;51.438;6.978;2023-03-15T05:16:38;6.80;;;5.70;;
2338;SDS011;1180;51.438;6.978;2023-03-15T05:19:04;8.10;;;6.20;;
2338;SDS011;1180;51.438;6.978;2023-03-15T05:21:29;6.90;;;5.20;;
2338;SDS011;1180;51.438;6.978;2023-03-15T05:23:56;6.80;;;6.03;;
2338;SDS011;1180;51.438;6.978;2023-03-15T05:26:22;7.00;;;6.33;;
2338;SDS011;1180;51.438;6.978;2023-03-15T05:28:48;7.45;;;6.35;;
2338;SDS011;1180;51.438;6.978;2023-03-15T05:31:16;8.20;;;6.45;;
2338;SDS011;1180;51.438;6.978;2023-03-15T05:33:41;8.00;;;7.13;;
2338;SDS011;1180;51.438;6.978;2023-03-15T05:36:11;8.77;;;7.80;;
2338;SDS011;1180;51.438;6.978;2023-03-15T05:38:39;8.57;;;6.57;;
2338;SDS011;1180;51.438;6.978;2023-03-15T05:41:06;12.30;;;8.18;;
2338;SDS011;1180;51.438;6.978;2023-03-15T05:43:32;8.40;;;7.13;;
2338;SDS011;1180;51.438;6.978;2023-03-15T05:45:58;10.90;;;9.33;;
2338;SDS011;1180;51.438;6.978;2023-03-15T05:48:23;12.90;;;8.90;;
2338;SDS011;1180;51.438;6.978;2023-03-15T05:50:48;13.97;;;10.10;;
2338;SDS011;1180;51.438;6.978;2023-03-15T05:53:14;11.13;;;8.70;;
2338;SDS011;1180;51.438;6.978;2023-03-15T05:55:39;11.30;;;8.40;;
2338;SDS011;1180;51.438;6.978;2023-03-15T05:58:05;12.03;;;9.67;;
2338;SDS011;1180;51.438;6.978;2023-03-15T06:00:30;13.33;;;9.57;;
2338;SDS011;1180;51.438;6.978;2023-03-15T06:02:56;14.17;;;10.20;;
2338;SDS011;1180;51.438;6.978;2023-03-15T06:05:21;13.03;;;10.23;;
2338;SDS011;1180;51.438;6.978;2023-03-15T06:07:46;15.70;;;10.53;;
2338;SDS011;1180;51.438;6.978;2023-03-15T06:10:12;13.50;;;10.97;;
2338;SDS011;1180;51.438;6.978;2023-03-15T06:12:38;12.73;;;10.80;;
2338;SDS011;1180;51.438;6.978;2023-03-15T06:15:03;16.17;;;12.80;;
2338;SDS011;1180;51.438;6.978;2023-03-15T06:17:29;17.55;;;12.57;;
2338;SDS011;1180;51.438;6.978;2023-03-15T06:19:55;16.77;;;12.60;;
2338;SDS011;1180;51.438;6.978;2023-03-15T06:22:20;21.07;;;14.30;;
2338;SDS011;1180;51.438;6.978;2023-03-15T06:24:48;21.08;;;13.80;;
2338;SDS011;1180;51.438;6.978;2023-03-15T06:27:13;17.10;;;14.03;;
2338;SDS011;1180;51.438;6.978;2023-03-15T06:29:39;17.57;;;13.90;;
2338;SDS011;1180;51.438;6.978;2023-03-15T06:32:04;15.90;;;13.43;;
2338;SDS011;1180;51.438;6.978;2023-03-15T06:34:29;15.20;;;12.50;;
2338;SDS011;1180;51.438;6.978;2023-03-15T06:36:55;23.93;;;16.87;;
2338;SDS011;1180;51.438;6.978;2023-03-15T06:39:20;18.63;;;13.77;;
2338;SDS011;1180;51.438;6.978;2023-03-15T06:41:46;18.30;;;15.00;;
2338;SDS011;1180;51.438;6.978;2023-03-15T06:44:11;22.27;;;16.00;;
2338;SDS011;1180;51.438;6.978;2023-03-15T06:46:36;24.73;;;15.90;;
2338;SDS011;1180;51.438;6.978;2023-03-15T06:49:02;21.63;;;15.60;;
2338;SDS011;1180;51.438;6.978;2023-03-15T06:51:27;23.40;;;15.97;;
2338;SDS011;1180;51.438;6.978;2023-03-15T06:53:53;21.70;;;13.83;;
2338;SDS011;1180;51.438;6.978;2023-03-15T06:56:18;21.50;;;15.53;;
2338;SDS011;1180;51.438;6.978;2023-03-15T06:58:44;19.80;;;15.23;;
2338;SDS011;1180;51.438;6.978;2023-03-15T07:01:13;24.00;;;16.00;;
2338;SDS011;1180;51.438;6.978;2023-03-15T07:03:39;23.42;;;15.50;;
2338;SDS011;1180;51.438;6.978;2023-03-15T07:06:05;26.30;;;15.95;;
2338;SDS011;1180;51.438;6.978;2023-03-15T07:08:30;23.70;;;13.60;;
2338;SDS011;1180;51.438;6.978;2023-03-15T07:10:56;20.83;;;15.60;;
2338;SDS011;1180;51.438;6.978;2023-03-15T07:13:22;20.60;;;12.23;;
2338;SDS011;1180;51.438;6.978;2023-03-15T07:15:53;17.63;;;12.00;;
2338;SDS011;1180;51.438;6.978;2023-03-15T07:18:20;15.93;;;11.38;;
2338;SDS011;1180;51.438;6.978;2023-03-15T07:20:46;13.20;;;10.93;;
2338;SDS011;1180;51.438;6.978;2023-03-15T07:23:11;14.70;;;11.07;;
2338;SDS011;1180;51.438;6.978;2023-03-15T07:25:37;13.93;;;10.23;;
2338;SDS011;1180;51.438;6.978;2023-03-15T07:28:02;13.60;;;10.10;;
2338;SDS011;1180;51.438;6.978;2023-03-15T07:30:27;16.17;;;10.07;;
2338;SDS011;1180;51.438;6.978;2023-03-15T07:32:53;11.80;;;8.50;;
2338;SDS011;1180;51.438;6.978;2023-03-15T07:35:18;10.90;;;8.90;;
2338;SDS011;1180;51.438;6.978;2023-03-15T07:37:44;17.40;;;8.43;;
2338;SDS011;1180;51.438;6.978;2023-03-15T07:40:10;12.43;;;9.00;;
2338;SDS011;1180;51.438;6.978;2023-03-15T07:42:37;12.60;;;8.43;;
2338;SDS011;1180;51.438;6.978;2023-03-15T07:45:04;12.35;;;9.23;;
2338;SDS011;1180;51.438;6.978;2023-03-15T07:47:31;19.63;;;10.43;;
2338;SDS011;1180;51.438;6.978;2023-03-15T07:49:56;14.90;;;10.57;;
2338;SDS011;1180;51.438;6.978;2023-03-15T07:52:22;15.17;;;9.97;;
2338;SDS011;1180;51.438;6.978;2023-03-15T07:54:48;14.48;;;9.23;;
2338;SDS011;1180;51.438;6.978;2023-03-15T07:57:13;19.73;;;9.80;;
2338;SDS011;1180;51.438;6.978;2023-03-15T07:59:39;11.80;;;8.77;;
2338;SDS011;1180;51.438;6.978;2023-03-15T08:02:05;11.10;;;9.20;;
2338;SDS011;1180;51.438;6.978;2023-03-15T08:04:31;17.47;;;10.00;;
2338;SDS011;1180;51.438;6.978;2023-03-15T08:06:56;17.57;;;12.33;;
2338;SDS011;1180;51.438;6.978;2023-03-15T08:09:22;18.10;;;14.10;;
2338;SDS011;1180;51.438;6.978;2023-03-15T08:11:47;22.40;;;13.47;;
2338;SDS011;1180;51.438;6.978;2023-03-15T08:14:13;22.33;;;14.37;;
2338;SDS011;1180;51.438;6.978;2023-03-15T08:16:38;23.83;;;12.83;;
2338;SDS011;1180;51.438;6.978;2023-03-15T08:19:03;22.77;;;13.57;;
2338;SDS011;1180;51.438;6.978;2023-03-15T08:21:29;20.13;;;13.37;;
2338;SDS011;1180;51.438;6.978;2023-03-15T08:23:59;22.00;;;12.07;;
2338;SDS011;1180;51.438;6.978;2023-03-15T08:26:24;24.50;;;13.47;;
2338;SDS011;1180;51.438;6.978;2023-03-15T08:28:50;26.90;;;16.63;;
2338;SDS011;1180;51.438;6.978;2023-03-15T08:31:15;29.50;;;15.80;;
2338;SDS011;1180;51.438;6.978;2023-03-15T08:33:41;34.10;;;16.73;;
2338;SDS011;1180;51.438;6.978;2023-03-15T08:36:06;30.80;;;17.63;;
2338;SDS011;1180;51.438;6.978;2023-03-15T08:38:32;27.47;;;18.07;;
2338;SDS011;1180;51.438;6.978;2023-03-15T08:40:59;34.30;;;19.80;;
2338;SDS011;1180;51.438;6.978;2023-03-15T08:43:24;31.60;;;18.90;;
2338;SDS011;1180;51.438;6.978;2023-03-15T08:45:50;31.37;;;19.17;;
2338;SDS011;1180;51.438;6.978;2023-03-15T08:48:16;28.20;;;18.00;;
2338;SDS011;1180;51.438;6.978;2023-03-15T08:50:41;38.03;;;19.83;;
2338;SDS011;1180;51.438;6.978;2023-03-15T08:53:07;37.50;;;18.93;;
2338;SDS011;1180;51.438;6.978;2023-03-15T08:55:33;36.70;;;21.03;;
2338;SDS011;1180;51.438;6.978;2023-03-15T08:57:58;33.17;;;19.60;;
2338;SDS011;1180;51.438;6.978;2023-03-15T09:00:25;29.63;;;18.70;;
2338;SDS011;1180;51.438;6.978;2023-03-15T09:02:51;29.50;;;17.93;;
2338;SDS011;1180;51.438;6.978;2023-03-15T09:05:17;30.00;;;16.40;;
2338;SDS011;1180;51.438;6.978;2023-03-15T09:07:45;26.70;;;15.87;;
2338;SDS011;1180;51.438;6.978;2023-03-15T09:10:12;31.23;;;17.67;;
2338;SDS011;1180;51.438;6.978;2023-03-15T09:12:39;27.40;;;17.17;;
2338;SDS011;1180;51.438;6.978;2023-03-15T09:15:06;25.20;;;15.00;;
2338;SDS011;1180;51.438;6.978;2023-03-15T09:17:31;27.03;;;15.47;;
2338;SDS011;1180;51.438;6.978;2023-03-15T09:19:57;26.03;;;15.53;;
2338;SDS011;1180;51.438;6.978;2023-03-15T09:22:22;27.73;;;16.80;;
2338;SDS011;1180;51.438;6.978;2023-03-15T09:24:48;23.30;;;15.70;;
2338;SDS011;1180;51.438;6.978;2023-03-15T09:27:13;25.93;;;14.53;;
2338;SDS011;1180;51.438;6.978;2023-03-15T09:29:38;19.43;;;13.63;;
2338;SDS011;1180;51.438;6.978;2023-03-15T09:32:04;20.83;;;13.90;;
2338;SDS011;1180;51.438;6.978;2023-03-15T09:34:29;21.93;;;13.00;;
2338;SDS011;1180;51.438;6.978;2023-03-15T09:36:55;18.70;;;10.77;;
2338;SDS011;1180;51.438;6.978;2023-03-15T09:39:21;16.90;;;10.50;;
2338;SDS011;1180;51.438;6.978;2023-03-15T09:41:54;18.20;;;11.37;;
2338;SDS011;1180;51.438;6.978;2023-03-15T09:49:43;12.83;;;10.13;;
2338;SDS011;1180;51.438;6.978;2023-03-15T09:52:33;15.90;;;9.93;;
2338;SDS011;1180;51.438;6.978;2023-03-15T09:55:14;17.40;;;10.97;;
2338;SDS011;1180;51.438;6.978;2023-03-15T09:57:49;12.93;;;9.07;;
2338;SDS011;1180;51.438;6.978;2023-03-15T10:00:22;12.60;;;9.77;;
2338;SDS011;1180;51.438;6.978;2023-03-15T10:02:56;13.60;;;10.17;;
2338;SDS011;1180;51.438;6.978;2023-03-15T10:05:46;19.30;;;10.40;;
2338;SDS011;1180;51.438;6.978;2023-03-15T10:08:16;13.23;;;8.33;;
2338;SDS011;1180;51.438;6.978;2023-03-15T10:10:46;13.00;;;7.90;;
2338;SDS011;1180;51.438;6.978;2023-03-15T10:16:06;17.67;;;11.93;;
2338;SDS011;1180;51.438;6.978;2023-03-15T10:18:59;22.17;;;11.60;;
2338;SDS011;1180;51.438;6.978;2023-03-15T10:21:53;19.90;;;12.93;;
2338;SDS011;1180;51.438;6.978;2023-03-15T10:29:58;19.70;;;12.87;;
2338;SDS011;1180;51.438;6.978;2023-03-15T10:32:26;24.83;;;13.27;;
2338;SDS011;1180;51.438;6.978;2023-03-15T10:34:55;16.83;;;11.67;;
2338;SDS011;1180;51.438;6.978;2023-03-15T10:37:23;20.80;;;12.63;;
2338;SDS011;1180;51.438;6.978;2023-03-15T10:39:53;18.63;;;10.70;;
2338;SDS011;1180;51.438;6.978;2023-03-15T10:42:25;18.10;;;9.27;;
2338;SDS011;1180;51.438;6.978;2023-03-15T10:44:52;17.37;;;9.60;;
2338;SDS011;1180;51.438;6.978;2023-03-15T10:47:20;10.13;;;6.20;;
2338;SDS011;1180;51.438;6.978;2023-03-15T10:49:47;17.27;;;7.20;;
2338;SDS011;1180;51.438;6.978;2023-03-15T10:52:36;12.13;;;7.10;;
2338;SDS011;1180;51.438;6.978;2023-03-15T10:55:27;11.90;;;7.40;;
2338;SDS011;1180;51.438;6.978;2023-03-15T10:57:58;10.90;;;7.93;;
2338;SDS011;1180;51.438;6.978;2023-03-15T11:00:38;12.30;;;8.63;;
2338;SDS011;1180;51.438;6.978;2023-03-15T11:03:17;16.00;;;7.83;;
2338;SDS011;1180;51.438;6.978;2023-03-15T11:05:57;17.90;;;8.83;;
2338;SDS011;1180;51.438;6.978;2023-03-15T11:08:44;15.93;;;6.00;;
2338;SDS011;1180;51.438;6.978;2023-03-15T11:11:09;7.67;;;3.67;;
2338;SDS011;1180;51.438;6.978;2023-03-15T11:13:35;8.40;;;3.40;;
2338;SDS011;1180;51.438;6.978;2023-03-15T11:16:04;7.50;;;4.67;;
2338;SDS011;1180;51.438;6.978;2023-03-15T11:18:43;14.23;;;6.60;;
2338;SDS011;1180;51.438;6.978;2023-03-15T11:21:09;8.80;;;4.80;;
2338;SDS011;1180;51.438;6.978;2023-03-15T11:23:38;14.20;;;6.10;;
2338;SDS011;1180;51.438;6.978;2023-03-15T11:26:08;10.83;;;5.50;;
2338;SDS011;1180;51.438;6.978;2023-03-15T11:28:41;7.43;;;3.97;;
2338;SDS011;1180;51.438;6.978;2023-03-15T11:31:14;4.60;;;2.20;;
2338;SDS011;1180;51.438;6.978;2023-03-15T11:33:53;8.67;;;3.20;;
2338;SDS011;1180;51.438;6.978;2023-03-15T11:36:24;5.77;;;3.37;;
2338;SDS011;1180;51.438;6.978;2023-03-15T11:38:53;5.60;;;3.77;;
2338;SDS011;1180;51.438;6.978;2023-03-15T11:41:22;6.37;;;3.33;;
2338;SDS011;1180;51.438;6.978;2023-03-15T11:44:24;8.43;;;3.47;;
2338;SDS011;1180;51.438;6.978;2023-03-15T11:46:49;4.47;;;2.80;;
2338;SDS011;1180;51.438;6.978;2023-03-15T11:49:32;9.23;;;4.13;;
2338;SDS011;1180;51.438;6.978;2023-03-15T11:52:02;6.23;;;5.17;;
2338;SDS011;1180;51.438;6.978;2023-03-15T11:54:28;8.57;;;5.47;;
2338;SDS011;1180;51.438;6.978;2023-03-15T11:57:03;7.00;;;4.63;;
2338;SDS011;1180;51.438;6.978;2023-03-15T11:59:31;7.37;;;2.97;;
2338;SDS011;1180;51.438;6.978;2023-03-15T12:02:34;2.93;;;1.67;;
2338;SDS011;1180;51.438;6.978;2023-03-15T12:04:53;1.63;;;1.53;;
2338;SDS011;1180;51.438;6.978;2023-03-15T12:22:43;6.63;;;3.27;;
2338;SDS011;1180;51.438;6.978;2023-03-15T12:25:15;4.93;;;2.50;;
2338;SDS011;1180;51.438;6.978;2023-03-15T12:27:48;4.37;;;3.10;;
2338;SDS011;1180;51.438;6.978;2023-03-15T12:30:18;4.53;;;2.73;;
2338;SDS011;1180;51.438;6.978;2023-03-15T12:33:04;6.70;;;2.60;;
2338;SDS011;1180;51.438;6.978;2023-03-15T12:35:39;5.50;;;2.87;;
2338;SDS011;1180;51.438;6.978;2023-03-15T12:38:14;5.83;;;3.13;;
2338;SDS011;1180;51.438;6.978;2023-03-15T12:51:40;2.50;;;2.30;;
2338;SDS011;1180;51.438;6.978;2023-03-15T12:54:18;4.97;;;2.13;;
2338;SDS011;1180;51.438;6.978;2023-03-15T12:56:47;3.73;;;2.10;;
2338;SDS011;1180;51.438;6.978;2023-03-15T12:59:27;3.60;;;2.13;;
2338;SDS011;1180;51.438;6.978;2023-03-15T13:01:56;5.37;;;1.97;;
2338;SDS011;1180;51.438;6.978;2023-03-15T13:04:25;5.83;;;1.63;;
2338;SDS011;1180;51.438;6.978;2023-03-15T13:07:03;3.70;;;1.83;;
2338;SDS011;1180;51.438;6.978;2023-03-15T13:12:54;4.57;;;2.03;;
2338;SDS011;1180;51.438;6.978;2023-03-15T13:16:25;5.47;;;2.00;;
2338;SDS011;1180;51.438;6.978;2023-03-15T13:18:31;3.10;;;1.60;;
2338;SDS011;1180;51.438;6.978;2023-03-15T13:23:50;5.23;;;1.97;;
2338;SDS011;1180;51.438;6.978;2023-03-15T13:26:23;3.07;;;1.73;;
2338;SDS011;1180;51.438;6.978;2023-03-15T13:29:13;3.20;;;1.20;;
2338;SDS011;1180;51.438;6.978;2023-03-15T13:31:42;3.47;;;1.80;;
2338;SDS011;1180;51.438;6.978;2023-03-15T13:34:10;2.43;;;2.23;;
2338;SDS011;1180;51.438;6.978;2023-03-15T13:36:39;5.33;;;1.63;;
2338;SDS011;1180;51.438;6.978;2023-03-15T13:39:23;2.80;;;1.70;;
2338;SDS011;1180;51.438;6.978;2023-03-15T13:42:01;3.40;;;2.10;;
2338;SDS011;1180;51.438;6.978;2023-03-15T13:44:29;4.73;;;1.40;;
2338;SDS011;1180;51.438;6.978;2023-03-15T13:46:55;3.50;;;1.87;;
2338;SDS011;1180;51.438;6.978;2023-03-15T13:49:22;3.37;;;2.10;;
2338;SDS011;1180;51.438;6.978;2023-03-15T13:51:48;4.50;;;1.83;;
2338;SDS011;1180;51.438;6.978;2023-03-15T13:59:33;2.57;;;1.90;;
2338;SDS011;1180;51.438;6.978;2023-03-15T14:02:03;2.80;;;1.57;;
2338;SDS011;1180;51.438;6.978;2023-03-15T14:04:30;4.40;;;1.80;;
2338;SDS011;1180;51.438;6.978;2023-03-15T14:07:03;2.70;;;1.63;;
2338;SDS011;1180;51.438;6.978;2023-03-15T14:09:45;4.13;;;1.83;;
2338;SDS011;1180;51.438;6.978;2023-03-15T14:12:17;3.40;;;1.67;;
2338;SDS011;1180;51.438;6.978;2023-03-15T14:14:51;5.47;;;1.67;;
2338;SDS011;1180;51.438;6.978;2023-03-15T14:17:24;5.17;;;1.97;;
2338;SDS011;1180;51.438;6.978;2023-03-15T14:19:52;3.27;;;1.40;;
2338;SDS011;1180;51.438;6.978;2023-03-15T14:22:19;2.47;;;1.63;;
2338;SDS011;1180;51.438;6.978;2023-03-15T14:24:46;2.80;;;1.47;;
2338;SDS011;1180;51.438;6.978;2023-03-15T14:27:16;4.37;;;1.47;;
2338;SDS011;1180;51.438;6.978;2023-03-15T14:29:56;4.43;;;1.70;;
2338;SDS011;1180;51.438;6.978;2023-03-15T14:32:30;3.13;;;2.03;;
2338;SDS011;1180;51.438;6.978;2023-03-15T14:35:40;3.07;;;1.40;;
2338;SDS011;1180;51.438;6.978;2023-03-15T14:38:01;2.83;;;1.60;;
2338;SDS011;1180;51.438;6.978;2023-03-15T14:40:39;4.07;;;1.50;;
2338;SDS011;1180;51.438;6.978;2023-03-15T14:43:05;2.13;;;1.53;;
2338;SDS011;1180;51.438;6.978;2023-03-15T14:45:32;1.90;;;1.40;;
2338;SDS011;1180;51.438;6.978;2023-03-15T14:48:06;2.37;;;1.33;;
2338;SDS011;1180;51.438;6.978;2023-03-15T14:50:40;2.90;;;1.77;;
2338;SDS011;1180;51.438;6.978;2023-03-15T14:53:08;4.20;;;1.57;;
2338;SDS011;1180;51.438;6.978;2023-03-15T14:55:38;7.63;;;1.83;;
2338;SDS011;1180;51.438;6.978;2023-03-15T14:58:11;5.97;;;2.60;;
2338;SDS011;1180;51.438;6.978;2023-03-15T15:00:46;2.50;;;1.40;;
2338;SDS011;1180;51.438;6.978;2023-03-15T15:03:24;3.10;;;1.60;;
2338;SDS011;1180;51.438;6.978;2023-03-15T15:06:08;4.80;;;1.53;;
2338;SDS011;1180;51.438;6.978;2023-03-15T15:08:37;4.27;;;1.73;;
2338;SDS011;1180;51.438;6.978;2023-03-15T15:11:05;2.57;;;2.37;;
2338;SDS011;1180;51.438;6.978;2023-03-15T15:13:35;4.20;;;1.60;;
2338;SDS011;1180;51.438;6.978;2023-03-15T15:16:02;3.87;;;1.60;;
2338;SDS011;1180;51.438;6.978;2023-03-15T15:18:29;3.57;;;1.70;;
2338;SDS011;1180;51.438;6.978;2023-03-15T15:20:57;2.80;;;1.70;;
2338;SDS011;1180;51.438;6.978;2023-03-15T15:23:26;2.40;;;1.27;;
2338;SDS011;1180;51.438;6.978;2023-03-15T15:25:55;1.70;;;1.43;;
2338;SDS011;1180;51.438;6.978;2023-03-15T15:28:25;2.20;;;1.63;;
2338;SDS011;1180;51.438;6.978;2023-03-15T15:30:51;2.33;;;1.43;;
2338;SDS011;1180;51.438;6.978;2023-03-15T15:33:16;2.63;;;1.97;;
2338;SDS011;1180;51.438;6.978;2023-03-15T15:35:42;3.43;;;1.60;;
2338;SDS011;1180;51.438;6.978;2023-03-15T15:38:08;1.70;;;1.30;;
2338;SDS011;1180;51.438;6.978;2023-03-15T15:40:36;2.90;;;1.60;;
2338;SDS011;1180;51.438;6.978;2023-03-15T15:43:02;2.30;;;1.47;;
2338;SDS011;1180;51.438;6.978;2023-03-15T15:45:28;1.97;;;1.40;;
2338;SDS011;1180;51.438;6.978;2023-03-15T15:47:53;3.50;;;1.40;;
2338;SDS011;1180;51.438;6.978;2023-03-15T15:50:19;3.60;;;1.87;;
2338;SDS011;1180;51.438;6.978;2023-03-15T15:52:48;3.00;;;1.57;;
2338;SDS011;1180;51.438;6.978;2023-03-15T15:55:20;1.90;;;1.27;;
2338;SDS011;1180;51.438;6.978;2023-03-15T15:57:50;5.10;;;2.30;;
2338;SDS011;1180;51.438;6.978;2023-03-15T16:00:21;3.13;;;1.83;;
2338;SDS011;1180;51.438;6.978;2023-03-15T16:02:48;3.73;;;1.63;;
2338;SDS011;1180;51.438;6.978;2023-03-15T16:05:16;2.23;;;1.33;;
2338;SDS011;1180;51.438;6.978;2023-03-15T16:07:42;3.37;;;2.17;;
2338;SDS011;1180;51.438;6.978;2023-03-15T16:10:15;2.43;;;1.30;;
2338;SDS011;1180;51.438;6.978;2023-03-15T16:12:43;6.40;;;1.60;;
2338;SDS011;1180;51.438;6.978;2023-03-15T16:15:10;2.40;;;1.63;;